Saturday, August 18, 2018, 2:52 AM GMT
Back to Local

CYZX, Greenwood, N. S.

Location: , , Canada Lat: 44.983
Local Time: 2:52 AM GMT ( 2:52 GMT) Lon: -64.917
Time Zone: GMT Elev: 91 ft

Show me the last for .
Show Decoded

2018-08-18 02:00 METAR CYZX 180200Z 00000KT 15SM SCT250 15/13 A3004 RMK CI3 SLP172 =
2018-08-18 01:00 METAR CYZX 180100Z 00000KT 15SM BKN250 17/12 A3004 RMK CI5 SLP174 =
2018-08-18 00:00 METAR CYZX 180000Z 00000KT 15SM BKN250 18/13 A3004 RMK CI5 SLP174 =
2018-08-17 23:00 METAR CYZX 172300Z 26003KT 15SM BKN250 21/10 A3003 RMK CI6 SLP171 =
2018-08-17 22:00 METAR CYZX 172200Z 32003KT 15SM FEW040 BKN250 22/10 A3004 RMK CU1CI6 SLP172 =
2018-08-17 21:00 METAR CYZX 172100Z 30006KT 15SM FEW040 BKN250 23/12 A3005 RMK CU1CI5 SLP176 =
2018-08-17 20:00 METAR CYZX 172000Z 30007KT 15SM FEW040 BKN250 23/17 A3005 RMK CU1CI4 SLP178 =
2018-08-17 19:00 METAR CYZX 171900Z 00000KT 15SM FEW046 SCT250 23/17 A3007 RMK CU2CI2 SLP182 =
2018-08-17 18:00 METAR CYZX 171800Z 28007KT 15SM FEW046 SCT250 22/16 A3007 RMK CU2CI2 SLP184 =
2018-08-17 17:00 METAR CYZX 171700Z 02004KT 15SM FEW044 SCT250 22/16 A3008 RMK CU2CI2 SLP188 =
2018-08-17 16:00 METAR CYZX 171600Z 36003KT 15SM FEW034 SCT250 22/15 A3010 RMK CU2CI2 SLP192 =
2018-08-17 15:00 METAR CYZX 171500Z 18003KT 15SM FEW028 SCT250 21/14 A3011 RMK CU2CI2 1016.7
                 SLP198 =
2018-08-17 14:00 METAR CYZX 171400Z 00000KT 15SM SCT025 BKN250 19/14 A3013 RMK CU3CI2 SLP202 =
2018-08-17 13:00 METAR CYZX 171300Z 36004KT 15SM FEW018 SCT250 18/14 A3013 RMK CU1CI3 SLP204 =
2018-08-17 12:00 METAR CYZX 171200Z 00000KT 15SM FEW015 SCT250 17/14 A3013 RMK SC1CI3 SLP204 =
2018-08-17 11:00 METAR CYZX 171100Z 20003KT 15SM FEW015 FEW110 SCT250 15/14 A3012 RMK SC1AC1CI2
                 SLP201 =
2018-08-17 10:00 METAR CYZX 171000Z 00000KT 15SM FEW025 FEW120 SCT250 14/13 A3011 RMK SC1AC2CI2
                 SLP197 =
2018-08-17 09:00 METAR CYZX 170900Z 00000KT 15SM SCT025 15/13 A3010 RMK SC4 SLP195 =
2018-08-17 08:00 METAR CYZX 170800Z 34003KT 15SM SCT023 15/14 A3009 RMK SC4 SLP189 =
2018-08-17 07:00 METAR CYZX 170700Z 36003KT 15SM FEW024 15/14 A3008 RMK SC2 SLP186 =
2018-08-17 06:00 METAR CYZX 170600Z 36003KT 15SM SKC 15/14 A3007 RMK SLP183 =
2018-08-17 05:00 METAR CYZX 170500Z 05004KT 15SM FEW030 17/15 A3005 RMK SC2 SLP177 =
2018-08-17 04:49 METAR CYZX 170449Z 03004KT 15SM FEW030 17/15 A3005 RMK SC2 SLP178 =
2018-08-17 04:00 METAR CYZX 170400Z 02006KT 15SM BKN024 18/15 A3005 RMK SC6 SLP178 =
2018-08-17 03:37 METAR CYZX 170337Z 01006KT 15SM BKN021 18/15 A3006 RMK SC6 SLP179 =
2018-08-17 03:00 METAR CYZX 170300Z 01006KT 15SM BKN027 18/16 A3005 RMK SC6 SLP176 =

Support USWX by starting your Amazon purchase here.